Arlington, TN

7:21 PM CDT on September 01, 2014 (GMT -0500)
Salem Road Ranches | Change Station
CLOSE
Current Station
Personal Weather Station
Location: Lakeland, TN
Elevation: 400 ft
Nearby Weather Stations

Elev 400 ft 35.30 °N, 89.74 °W | Updated 37 seconds ago

Partly Cloudy
Partly Cloudy
83.3 °F
Feels Like 91 °F
N
0.0
Wind Variable Wind from West
Gusts 0.0 mph

Today
High -- | Low -- °F
--% Chance of Precip.
Yesterday
High -- | Low -- °F
Precip. -- in
6:31 AM 7:25 PM
Waxing Crescent, 45% visible
Pressure 29.95 in
Visibility 10.0 miles
Clouds Few 4500 ft
Scattered Clouds 25000 ft
Heat Index 91 °F
Dew Point 76 °F
Humidity 78%
Rainfall 0.00 in
Snow Depth Not available.
UV 0 out of 12
Pollen 10.90 out of 12
Ozone Good
PM2.5 Moderate
Flu Activity Not available.
METAR KNQA 012350Z 14005KT 10SM FEW045 SCT250 31/23 A2995

More Conditions Fewer Conditions

Pressure 29.95 in
Visibility 10.0 miles
Clouds Few 4500 ft
Scattered Clouds 25000 ft
Heat Index 91 °F
Dew Point 76 °F
Humidity 78%
Rainfall 0.00 in
Snow Depth Not available.
UV 0 out of 12
Pollen 10.90 out of 12
Ozone Good
PM2.5 Moderate
Flu Activity Not available.
METAR KNQA 012350Z 14005KT 10SM FEW045 SCT250 31/23 A2995

More Conditions Fewer Conditions

10-Day Weather Forecast

Almanac

Astronomy

Sep. 01, 2014 Rise Set
Actual Time 6:31 AM CDT 7:25 PM CDT
Civil Twilight 6:05 AM CDT 7:51 PM CDT
Nautical Twilight 5:34 AM CDT 8:22 PM CDT
Astronomical Twilight 5:02 AM CDT 8:53 PM CDT
Moon 1:02 PM CDT (9/1) 11:42 PM CDT (9/1)
Length of Visible Light 13h 46m
Length of Day
12h 54m
Tomorrow will be 2m 8s shorter.
Waxing Crescent, 45% of the Moon is Illuminated
Today
Waxing Crescent
Sep 2
First Quarter
Sep 8
Full
Sep 15
Last Quarter
Sep 24
New

Today's Extremes

State Highs State Lows

Community

WunderPhotos

Upload Photos

1,749,461 photos uploaded!

Nearby

Air Quality

  Air Quality AQ Index Pollutant
Yesterday Good
OZONE
Yesterday Good
PM2.5
Current Moderate
PM2.5
Current Good
OZONE
Monday Moderate
PM2.5
Monday Good
OZONE
Tuesday Moderate
PM2.5
Tuesday Good
OZONE
Wednesday Moderate
PM2.5
Wednesday Good
OZONE

Snow Depth

Station Depth Elevation
No new snow has been reported.

Earthquake Activity

City Distance Mag. Time & Date
Tiptonville, Tennessee 76 miles 2.9 11:19 PM CDT
2014-08-31
Minimum magnitude displayed is 2.5.

Coastal Water Temperatures

Place Temperature
No Stations Reporting

Nearby Weather Stations